Terminal Aerodrome Forecast
Issued by NWS

Home | Current Version | Previous Version | Text Only | Print | Product List | Glossary On
Versions: 1 2 3 4 5 6 7 8 9 10 11 12
586
FTUS46 KMTR 160538
TAFOAK
TAF
KOAK 160538Z 1606/1712 00000KT P6SM SCT200
     FM161000 33011KT P6SM SKC
     FM161800 33016G24KT P6SM FEW250
     FM162200 32018G26KT P6SM FEW250
     FM170300 33008KT P6SM SKC
     FM170600 01008KT P6SM SKC=

USA.gov is the U.S. government's official web portal to all federal, state and local government web resources and services.